Terminal Aerodrome Forecast
Issued by NWS

Home | Current Version | Previous Version | Text Only | Print | Product List | Glossary On
Versions: 1 2 3 4 5 6 7 8 9 10 11 12 13 14 15 16 17 18 19 20 21 22 23 24 25 26
000
FTUS43 KDTX 041725
TAFPTK
TAF
KPTK 041725Z 0418/0518 14013KT P6SM -SHRA SCT035 OVC070
     FM041815 14012KT 4SM SHRA SCT025 BKN035
      TEMPO 0419/0421 3SM TSRA BKN025CB
     FM042100 12009KT 6SM -SHRA BKN020 OVC035
     FM050100 06006KT P6SM BKN045
     FM050500 01007KT P6SM BKN060
     FM050900 01011KT P6SM SCT060
      TEMPO 0509/0513 BKN018
     FM051400 01013KT P6SM SCT035=

USA.gov is the U.S. government's official web portal to all federal, state and local government web resources and services.